Time;durP1;ratioP1;P1;durP2;ratioP2;P2;SDS_P1;SDS_P2;PMS_P1;PMS_P2;Temp;Humidity;BMP_temperature;BMP_pressure;BME280_temperature;BME280_humidity;BME280_pressure;Samples;Min_cycle;Max_cycle;Signal;HPM_P1;HPM_P2
2022/06/24 00:01:58;;;;;;;3.90;3.60;;;20.70;99.90;;;;;;5021963;28;21081;-70
2022/06/24 00:04:52;;;;;;;3.83;3.63;;;20.70;99.90;;;;;;5025433;28;20479;-70
2022/06/24 00:07:47;;;;;;;3.50;3.30;;;20.60;99.90;;;;;;5024648;28;20448;-71
2022/06/24 00:10:37;;;;;;;4.17;3.83;;;20.60;99.90;;;;;;5020014;28;20456;-70
2022/06/24 00:13:38;;;;;;;3.90;3.60;;;20.60;99.90;;;;;;5026470;28;20957;-68
2022/06/24 00:16:29;;;;;;;3.87;3.67;;;20.60;99.90;;;;;;5020520;28;20894;-69
2022/06/24 00:19:17;;;;;;;3.57;3.33;;;20.50;99.90;;;;;;5024120;28;20817;-69
2022/06/24 00:22:12;;;;;;;4.20;3.90;;;20.50;99.90;;;;;;5026348;28;20491;-69
2022/06/24 00:25:09;;;;;;;3.90;3.63;;;20.50;99.90;;;;;;5024444;28;20836;-69
2022/06/24 00:28:03;;;;;;;4.13;3.83;;;20.50;99.90;;;;;;5024992;28;20447;-69
2022/06/24 00:30:54;;;;;;;3.73;3.43;;;20.50;99.90;;;;;;5017947;28;20477;-69
2022/06/24 00:33:46;;;;;;;3.90;3.70;;;20.50;99.90;;;;;;5026752;28;20468;-69
2022/06/24 00:36:34;;;;;;;3.87;3.67;;;20.40;99.90;;;;;;5024981;28;20951;-68
2022/06/24 00:39:32;;;;;;;3.60;3.40;;;20.40;99.90;;;;;;5024290;28;20536;-69
2022/06/24 00:42:23;;;;;;;3.70;3.50;;;20.40;99.90;;;;;;5022337;28;20489;-69
2022/06/24 00:45:21;;;;;;;4.13;3.83;;;20.40;99.90;;;;;;5020373;28;20626;-69
2022/06/24 00:48:15;;;;;;;3.70;3.50;;;20.30;99.90;;;;;;5028534;28;21025;-69
2022/06/24 00:51:06;;;;;;;4.03;3.80;;;20.30;99.90;;;;;;5024264;28;20518;-69
2022/06/24 00:53:56;;;;;;;3.87;3.67;;;20.30;99.90;;;;;;5025746;28;20474;-69
2022/06/24 00:56:46;;;;;;;4.67;4.40;;;20.30;99.90;;;;;;5024678;28;20462;-69
2022/06/24 00:59:35;;;;;;;4.27;3.87;;;20.30;99.90;;;;;;5023634;28;20462;-69
2022/06/24 01:02:28;;;;;;;4.00;3.80;;;20.30;99.90;;;;;;5018098;28;22321;-69
2022/06/24 01:05:19;;;;;;;4.17;3.87;;;20.20;99.90;;;;;;5019470;28;20475;-69
2022/06/24 01:08:11;;;;;;;4.30;4.00;;;20.20;99.90;;;;;;5024222;28;20455;-69
2022/06/24 01:11:02;;;;;;;4.00;3.70;;;20.20;99.90;;;;;;5021673;28;20628;-69
2022/06/24 01:13:50;;;;;;;4.43;4.03;;;20.10;99.90;;;;;;5022637;28;20649;-69
2022/06/24 01:17:04;;;;;;;4.43;4.10;;;20.10;99.90;;;;;;5020814;28;20451;-69
2022/06/24 01:19:59;;;;;;;4.13;3.80;;;20.00;99.90;;;;;;5021958;28;20467;-69
2022/06/24 01:22:50;;;;;;;4.37;4.07;;;20.00;99.90;;;;;;5025466;28;20459;-69
2022/06/24 01:25:40;;;;;;;4.40;4.10;;;20.00;99.90;;;;;;5021680;28;20586;-69
2022/06/24 01:28:31;;;;;;;4.10;3.80;;;19.90;99.90;;;;;;5025199;28;20480;-69
2022/06/24 01:34:35;;;;;;;3.90;3.60;;;19.90;99.90;;;;;;5018362;28;20537;-69
2022/06/24 01:37:27;;;;;;;4.30;4.00;;;19.90;99.90;;;;;;5034821;28;20456;-70
2022/06/24 01:40:19;;;;;;;4.80;4.30;;;19.80;99.90;;;;;;5041157;28;20476;-70
2022/06/24 01:43:31;;;;;;;4.13;3.83;;;19.80;99.90;;;;;;5032739;28;20986;-70
2022/06/24 01:46:20;;;;;;;4.23;3.93;;;19.80;99.90;;;;;;5021127;28;20598;-70
2022/06/24 01:49:12;;;;;;;4.77;4.47;;;19.80;99.90;;;;;;5024708;28;20459;-70
2022/06/24 01:52:00;;;;;;;4.23;3.93;;;19.80;99.90;;;;;;5024051;28;20476;-70
2022/06/24 01:54:50;;;;;;;4.67;4.10;;;19.80;99.90;;;;;;5025506;28;20476;-70
2022/06/24 01:57:53;;;;;;;4.90;4.40;;;19.70;99.90;;;;;;5022125;28;20519;-70
2022/06/24 02:00:51;;;;;;;4.53;4.27;;;19.70;99.90;;;;;;5020032;28;20951;-70
2022/06/24 02:03:39;;;;;;;4.30;4.00;;;19.70;99.90;;;;;;5023076;28;20553;-70
2022/06/24 02:06:29;;;;;;;4.90;4.40;;;19.70;99.90;;;;;;5021822;28;20966;-70
2022/06/24 02:09:20;;;;;;;4.87;4.30;;;19.60;99.90;;;;;;5023885;28;20534;-70
2022/06/24 02:15:24;;;;;;;4.50;4.20;;;19.50;99.90;;;;;;5019176;28;20491;-70
2022/06/24 02:18:12;;;;;;;4.67;4.27;;;19.50;99.90;;;;;;5024334;28;20827;-70
2022/06/24 02:21:01;;;;;;;4.07;3.80;;;19.50;99.90;;;;;;5022382;28;20513;-70
2022/06/24 02:23:50;;;;;;;3.93;3.63;;;19.40;99.90;;;;;;5019354;28;20569;-69
2022/06/24 02:26:42;;;;;;;4.10;3.63;;;19.40;99.90;;;;;;5019495;28;20463;-70
2022/06/24 02:29:58;;;;;;;4.20;3.90;;;19.40;99.90;;;;;;5019948;28;20567;-70
2022/06/24 02:32:50;;;;;;;4.10;3.80;;;19.40;99.90;;;;;;5021578;28;20439;-70
2022/06/24 02:35:48;;;;;;;4.33;3.90;;;19.30;99.90;;;;;;5020004;28;21224;-70
2022/06/24 02:38:48;;;;;;;4.43;4.07;;;19.30;99.90;;;;;;5022743;28;20456;-70
2022/06/24 02:41:47;;;;;;;4.10;3.83;;;19.30;99.90;;;;;;5020223;28;21279;-70
2022/06/24 02:44:37;;;;;;;4.00;3.70;;;19.20;99.90;;;;;;5015866;28;20634;-70
2022/06/24 02:47:48;;;;;;;4.23;3.93;;;19.20;99.90;;;;;;5019755;28;20455;-70
2022/06/24 02:50:48;;;;;;;3.63;3.43;;;19.10;99.90;;;;;;5021256;28;20466;-70
2022/06/24 02:53:37;;;;;;;4.10;3.90;;;19.10;99.90;;;;;;5020086;28;20479;-70
2022/06/24 02:56:28;;;;;;;4.17;3.87;;;19.10;99.90;;;;;;5021829;28;20536;-70
2022/06/24 02:59:32;;;;;;;4.30;4.00;;;19.10;99.90;;;;;;5020986;28;20470;-70
2022/06/24 03:02:42;;;;;;;4.10;3.90;;;19.10;99.90;;;;;;5020797;28;20496;-70
2022/06/24 03:05:35;;;;;;;5.83;4.30;;;19.10;99.90;;;;;;5018739;28;20471;-70
2022/06/24 03:08:27;;;;;;;4.33;3.90;;;19.10;99.90;;;;;;5022175;28;20483;-70
2022/06/24 03:11:17;;;;;;;3.67;3.47;;;19.10;99.90;;;;;;5020418;28;20456;-69
2022/06/24 03:14:11;;;;;;;4.23;3.97;;;19.00;99.90;;;;;;5020669;28;20563;-70
2022/06/24 03:17:04;;;;;;;4.50;4.20;;;19.00;99.90;;;;;;5022457;28;20843;-70
2022/06/24 03:19:57;;;;;;;3.80;3.60;;;19.00;99.90;;;;;;5021325;28;20462;-70
2022/06/24 03:22:49;;;;;;;4.00;3.70;;;19.00;99.90;;;;;;5020938;28;20448;-70
2022/06/24 03:25:38;;;;;;;4.57;4.27;;;18.90;99.90;;;;;;5017346;28;20525;-70
2022/06/24 03:28:29;;;;;;;4.30;3.90;;;18.90;99.90;;;;;;5019677;28;20534;-70
2022/06/24 03:31:20;;;;;;;4.57;3.83;;;18.90;99.90;;;;;;5018811;28;20493;-70
2022/06/24 03:34:13;;;;;;;7.50;4.17;;;18.90;99.90;;;;;;5023513;28;20836;-70
2022/06/24 03:37:01;;;;;;;5.17;3.60;;;18.90;99.90;;;;;;5026163;28;20546;-70
2022/06/24 03:39:51;;;;;;;4.20;3.90;;;18.90;99.90;;;;;;5026333;28;20486;-70
2022/06/24 03:42:45;;;;;;;4.10;3.80;;;18.90;99.90;;;;;;5023710;28;20557;-70
2022/06/24 03:45:33;;;;;;;4.10;3.70;;;18.90;99.90;;;;;;5020636;28;20526;-70
2022/06/24 03:48:21;;;;;;;4.27;3.97;;;18.90;99.90;;;;;;5026689;28;20485;-72
2022/06/24 03:51:09;;;;;;;4.40;4.00;;;18.90;99.90;;;;;;5022651;28;21049;-70
2022/06/24 03:53:57;;;;;;;4.50;4.17;;;18.90;99.90;;;;;;5024627;28;20485;-71
2022/06/24 03:56:46;;;;;;;4.93;4.53;;;18.80;99.90;;;;;;5022357;28;20517;-70
2022/06/24 03:59:38;;;;;;;4.73;4.30;;;18.90;99.90;;;;;;5026093;28;20538;-70
2022/06/24 04:02:29;;;;;;;4.50;4.10;;;18.90;99.90;;;;;;5021404;28;20559;-70
2022/06/24 04:05:19;;;;;;;4.60;4.20;;;18.90;99.90;;;;;;5023903;28;20518;-70
2022/06/24 04:08:07;;;;;;;4.40;4.10;;;18.90;99.90;;;;;;5025179;28;20505;-70
2022/06/24 04:11:01;;;;;;;4.70;4.40;;;18.90;99.90;;;;;;5021536;28;20459;-70
2022/06/24 04:13:53;;;;;;;4.60;4.30;;;18.90;99.90;;;;;;5024489;28;20571;-70
2022/06/24 04:16:49;;;;;;;4.40;4.20;;;18.90;99.90;;;;;;5023828;28;20459;-71
2022/06/24 04:19:40;;;;;;;3.93;3.63;;;18.90;99.90;;;;;;5025663;28;20747;-70
2022/06/24 04:22:34;;;;;;;4.50;4.10;;;18.90;99.90;;;;;;5023374;28;20498;-71
2022/06/24 04:25:35;;;;;;;;;;;;;;;;;;;;;
2022/06/24 04:28:28;;;;;;;4.10;3.80;;;19.00;99.90;;;;;;5024682;28;20451;-70
2022/06/24 04:31:28;;;;;;;4.53;4.20;;;19.10;99.90;;;;;;5017004;28;20674;-70
2022/06/24 04:34:24;;;;;;;4.30;4.00;;;19.10;99.90;;;;;;5023077;28;20479;-70
2022/06/24 04:37:20;;;;;;;5.30;4.80;;;19.10;99.90;;;;;;5020578;28;20495;-70
2022/06/24 04:40:11;;;;;;;4.77;4.40;;;19.10;99.90;;;;;;5020593;28;20553;-70
2022/06/24 04:42:59;;;;;;;5.00;4.60;;;19.10;99.90;;;;;;5019970;28;20495;-70
2022/06/24 04:45:49;;;;;;;5.40;4.53;;;19.20;99.90;;;;;;5017826;28;20515;-70
2022/06/24 04:48:39;;;;;;;4.77;4.40;;;19.20;99.90;;;;;;5022194;28;20521;-71
2022/06/24 04:51:31;;;;;;;6.30;4.50;;;19.20;99.90;;;;;;5019951;28;20483;-70
2022/06/24 04:54:20;;;;;;;4.17;3.87;;;19.30;99.90;;;;;;5022316;28;21024;-70
2022/06/24 04:57:12;;;;;;;5.47;4.97;;;19.30;99.90;;;;;;5023406;28;20598;-70
2022/06/24 05:00:03;;;;;;;4.70;4.37;;;19.40;99.90;;;;;;5021657;28;20490;-70
2022/06/24 05:02:51;;;;;;;4.60;4.30;;;19.40;99.90;;;;;;5017859;28;20451;-70
2022/06/24 05:05:43;;;;;;;5.17;4.77;;;19.40;99.90;;;;;;5020103;28;20566;-70
2022/06/24 05:08:35;;;;;;;5.30;4.90;;;19.50;99.90;;;;;;5021276;28;20454;-70
2022/06/24 05:11:25;;;;;;;5.60;5.00;;;19.50;99.90;;;;;;5014871;28;20459;-70
2022/06/24 05:14:18;;;;;;;5.40;4.90;;;19.60;99.90;;;;;;5023266;28;20474;-70
2022/06/24 05:17:09;;;;;;;5.60;5.20;;;19.60;99.90;;;;;;5018680;28;20459;-70
2022/06/24 05:20:02;;;;;;;6.33;5.10;;;19.70;99.90;;;;;;5019747;28;20456;-70
2022/06/24 05:22:51;;;;;;;5.87;5.27;;;19.70;99.90;;;;;;5020349;28;20832;-71
2022/06/24 05:25:46;;;;;;;5.30;4.90;;;19.80;99.90;;;;;;5018514;28;20602;-71
2022/06/24 05:28:37;;;;;;;6.10;5.50;;;19.80;99.90;;;;;;5019821;28;20485;-71
2022/06/24 05:31:34;;;;;;;6.07;5.47;;;19.90;99.90;;;;;;5013729;28;20916;-71
2022/06/24 05:34:40;;;;;;;5.90;5.50;;;19.90;99.90;;;;;;5013384;28;20602;-71
2022/06/24 05:37:28;;;;;;;6.53;5.40;;;19.90;99.90;;;;;;5016962;28;20770;-70
2022/06/24 05:40:18;;;;;;;5.50;5.10;;;20.00;99.90;;;;;;5010438;28;21019;-71
2022/06/24 05:43:16;;;;;;;8.63;5.10;;;20.00;99.90;;;;;;5009249;28;20553;-70
2022/06/24 05:46:09;;;;;;;5.13;4.83;;;20.10;99.90;;;;;;5009984;28;20568;-71
2022/06/24 05:49:02;;;;;;;6.07;5.47;;;20.10;99.90;;;;;;5016580;28;20466;-70
2022/06/24 05:51:50;;;;;;;5.93;5.53;;;20.20;99.90;;;;;;5017301;28;20585;-70
2022/06/24 05:58:00;;;;;;;5.63;5.23;;;20.30;99.90;;;;;;4971993;28;20528;-70
2022/06/24 06:00:51;;;;;;;5.50;5.10;;;20.40;99.90;;;;;;5017759;28;20527;-71
2022/06/24 06:03:39;;;;;;;5.87;5.47;;;20.40;99.90;;;;;;5012269;28;21894;-70
2022/06/24 06:06:27;;;;;;;5.70;5.30;;;20.50;99.90;;;;;;5002350;28;21067;-69
2022/06/24 06:09:19;;;;;;;6.83;6.23;;;20.60;99.90;;;;;;5013998;28;20522;-69
2022/06/24 06:12:07;;;;;;;6.37;5.80;;;20.60;99.90;;;;;;5032654;28;20483;-69
2022/06/24 06:14:56;;;;;;;6.30;5.57;;;20.70;99.90;;;;;;5039719;28;20579;-69
2022/06/24 06:17:45;;;;;;;6.50;6.00;;;20.70;99.90;;;;;;5029835;28;20499;-69
2022/06/24 06:20:34;;;;;;;6.40;5.80;;;20.80;99.90;;;;;;5017927;28;21568;-69
2022/06/24 06:23:24;;;;;;;5.40;5.00;;;20.90;99.90;;;;;;5019668;28;20532;-68
2022/06/24 06:26:13;;;;;;;7.07;5.67;;;20.90;99.90;;;;;;5018800;28;20506;-69
2022/06/24 06:29:02;;;;;;;6.20;5.70;;;21.00;99.90;;;;;;5017888;28;20529;-69
2022/06/24 06:31:51;;;;;;;5.43;5.13;;;21.10;99.90;;;;;;5017330;28;20947;-69
2022/06/24 06:34:41;;;;;;;5.90;5.43;;;21.20;99.90;;;;;;5018314;28;20475;-69
2022/06/24 06:37:31;;;;;;;5.73;5.33;;;21.30;99.90;;;;;;5019158;28;20546;-69
2022/06/24 06:40:20;;;;;;;6.67;6.17;;;21.30;99.90;;;;;;5014531;28;20515;-69
2022/06/24 06:43:09;;;;;;;6.03;5.67;;;21.30;99.90;;;;;;5022102;28;20516;-69
2022/06/24 06:45:58;;;;;;;6.03;5.63;;;21.30;99.90;;;;;;5025035;28;20582;-69
2022/06/24 06:48:46;;;;;;;5.97;5.47;;;21.40;99.90;;;;;;5020501;28;22467;-69
2022/06/24 06:51:36;;;;;;;6.40;5.93;;;21.40;99.90;;;;;;5017436;28;20546;-68
2022/06/24 06:54:24;;;;;;;7.10;6.43;;;21.50;99.90;;;;;;5013648;28;20717;-69
2022/06/24 06:57:14;;;;;;;6.40;6.00;;;21.50;99.90;;;;;;5017942;28;20539;-69
2022/06/24 07:00:09;;;;;;;6.10;5.60;;;21.60;99.90;;;;;;5022735;28;20532;-69
2022/06/24 07:02:57;;;;;;;6.73;6.13;;;21.60;99.90;;;;;;5019832;28;20598;-69
2022/06/24 07:05:48;;;;;;;6.17;5.67;;;21.60;99.90;;;;;;5017450;28;20496;-69
2022/06/24 07:08:39;;;;;;;6.70;6.10;;;21.70;99.90;;;;;;5019520;28;20533;-69
2022/06/24 07:11:33;;;;;;;6.40;5.90;;;21.70;99.90;;;;;;5013034;28;20474;-68
2022/06/24 07:14:23;;;;;;;6.80;6.30;;;21.80;99.90;;;;;;5020712;28;20616;-69
2022/06/24 07:17:12;;;;;;;6.80;6.20;;;21.90;99.90;;;;;;5021800;28;20601;-69
2022/06/24 07:20:02;;;;;;;7.27;6.73;;;22.00;99.90;;;;;;5015920;28;20557;-69
2022/06/24 07:22:54;;;;;;;7.20;6.63;;;22.10;99.90;;;;;;5020837;28;20467;-70
2022/06/24 07:25:44;;;;;;;6.10;5.63;;;22.20;99.90;;;;;;5019684;28;20841;-69
2022/06/24 07:28:34;;;;;;;7.03;6.53;;;22.30;99.90;;;;;;5018911;28;20542;-70
2022/06/24 07:31:22;;;;;;;7.60;7.10;;;22.40;99.90;;;;;;5011012;28;21054;-69
2022/06/24 07:34:10;;;;;;;7.30;6.70;;;22.50;99.90;;;;;;5012937;28;20506;-69
2022/06/24 07:37:02;;;;;;;6.97;6.27;;;22.50;99.90;;;;;;5011674;28;20506;-70
2022/06/24 07:39:50;;;;;;;7.00;6.40;;;22.60;99.90;;;;;;5016563;28;20768;-70
2022/06/24 07:42:40;;;;;;;9.13;8.43;;;22.60;99.90;;;;;;5021267;28;20838;-70
2022/06/24 07:45:33;;;;;;;8.40;7.73;;;22.70;99.90;;;;;;5014039;28;20538;-70
2022/06/24 07:48:21;;;;;;;7.40;6.80;;;22.80;99.90;;;;;;5009987;28;20471;-70
2022/06/24 07:51:12;;;;;;;8.27;7.67;;;22.90;99.90;;;;;;5006021;28;20573;-69
2022/06/24 07:54:01;;;;;;;8.47;7.40;;;23.10;99.90;;;;;;5016889;28;20967;-70
2022/06/24 07:56:57;;;;;;;9.53;8.80;;;23.10;99.90;;;;;;5018926;28;20483;-70
2022/06/24 07:59:47;;;;;;;8.67;7.97;;;23.10;99.90;;;;;;5010024;28;20967;-69
2022/06/24 08:02:35;;;;;;;8.23;7.40;;;23.20;99.90;;;;;;5012528;28;21311;-69
2022/06/24 08:05:24;;;;;;;11.80;10.90;;;23.30;99.90;;;;;;5017364;28;20493;-71
2022/06/24 08:08:12;;;;;;;11.60;10.70;;;23.40;99.90;;;;;;5016744;28;20492;-69
2022/06/24 08:11:00;;;;;;;10.53;9.60;;;23.50;99.90;;;;;;5011025;28;20453;-70
2022/06/24 08:13:56;;;;;;;8.30;7.37;;;23.70;99.90;;;;;;5017833;28;20475;-70
2022/06/24 08:16:46;;;;;;;7.57;6.97;;;23.80;99.90;;;;;;5021704;28;20515;-69
2022/06/24 08:19:39;;;;;;;7.00;6.40;;;23.90;99.90;;;;;;5018776;28;20471;-70
2022/06/24 08:22:27;;;;;;;6.93;6.50;;;24.00;99.90;;;;;;5010332;28;20460;-70
2022/06/24 08:25:15;;;;;;;7.33;6.40;;;24.00;99.90;;;;;;5015859;28;21019;-69
2022/06/24 08:28:10;;;;;;;7.33;6.73;;;24.10;99.90;;;;;;5013155;28;20470;-70
2022/06/24 08:30:58;;;;;;;7.00;6.60;;;24.20;99.90;;;;;;5012297;28;20527;-69
2022/06/24 08:33:54;;;;;;;8.10;7.50;;;24.30;99.90;;;;;;5020204;28;20976;-70
2022/06/24 08:36:44;;;;;;;8.03;7.43;;;24.40;99.90;;;;;;5021418;28;20589;-70
2022/06/24 08:39:32;;;;;;;7.77;7.07;;;24.50;99.90;;;;;;5019507;28;20678;-70
2022/06/24 08:42:29;;;;;;;7.47;6.90;;;24.60;99.90;;;;;;5017940;28;20593;-70
2022/06/24 08:45:18;;;;;;;8.63;6.63;;;24.70;99.90;;;;;;5015443;28;20479;-69
2022/06/24 08:48:08;;;;;;;7.33;6.73;;;24.70;99.90;;;;;;5020364;28;20548;-70
2022/06/24 08:50:58;;;;;;;7.13;6.73;;;24.90;99.90;;;;;;5020900;28;21143;-70
2022/06/24 08:53:49;;;;;;;7.00;6.50;;;25.00;99.90;;;;;;5019164;28;20467;-70
2022/06/24 08:56:58;;;;;;;7.23;6.73;;;25.20;99.90;;;;;;5012168;28;20475;-70
2022/06/24 08:59:48;;;;;;;7.70;7.20;;;25.30;99.90;;;;;;5025749;28;20491;-70
2022/06/24 09:02:36;;;;;;;7.40;6.87;;;25.40;99.90;;;;;;5010322;28;20467;-70
2022/06/24 09:05:28;;;;;;;7.87;7.37;;;25.50;99.90;;;;;;5019074;28;20479;-70
2022/06/24 09:08:18;;;;;;;7.37;6.87;;;25.50;99.90;;;;;;5020105;28;20546;-70
2022/06/24 09:11:10;;;;;;;7.37;6.67;;;25.60;99.90;;;;;;5018730;28;20462;-70
2022/06/24 09:14:00;;;;;;;6.90;6.50;;;25.70;99.90;;;;;;5012679;28;20514;-72
2022/06/24 09:16:51;;;;;;;7.93;7.17;;;25.90;99.90;;;;;;5018763;28;20479;-70
2022/06/24 09:19:41;;;;;;;8.13;7.43;;;25.90;99.90;;;;;;5016613;28;20474;-70
2022/06/24 09:22:32;;;;;;;7.67;7.07;;;26.00;99.90;;;;;;5016228;28;20939;-70
2022/06/24 09:25:22;;;;;;;7.70;7.20;;;26.20;99.90;;;;;;5017031;28;20483;-71
2022/06/24 09:28:12;;;;;;;7.80;7.10;;;26.30;99.90;;;;;;5017011;28;20901;-70
2022/06/24 09:31:02;;;;;;;7.53;7.07;;;26.40;99.90;;;;;;5011067;28;20452;-70
2022/06/24 09:33:51;;;;;;;7.60;7.00;;;26.50;99.90;;;;;;5014030;28;20570;-69
2022/06/24 09:36:41;;;;;;;8.17;7.30;;;26.60;99.90;;;;;;5018257;28;20591;-69
2022/06/24 09:39:36;;;;;;;7.40;6.90;;;26.70;99.90;;;;;;5017182;28;20502;-69
2022/06/24 09:42:26;;;;;;;8.97;8.27;;;26.80;99.90;;;;;;5017390;28;20469;-69
2022/06/24 09:45:17;;;;;;;8.90;8.00;;;26.90;99.90;;;;;;5015912;28;20867;-70
2022/06/24 09:48:06;;;;;;;8.53;7.43;;;27.00;99.90;;;;;;5017657;28;20543;-70
2022/06/24 09:50:56;;;;;;;8.10;7.40;;;27.10;99.90;;;;;;5018804;28;20609;-70
2022/06/24 09:53:45;;;;;;;7.70;7.20;;;27.10;99.90;;;;;;5020213;28;20507;-69
2022/06/24 09:56:34;;;;;;;7.57;7.10;;;27.20;99.90;;;;;;5013534;28;20490;-70
2022/06/24 10:02:32;;;;;;;8.43;7.70;;;27.40;99.90;;;;;;5011627;28;21174;-70
2022/06/24 10:05:26;;;;;;;7.57;7.07;;;27.60;99.90;;;;;;5018137;28;20482;-69
2022/06/24 10:08:17;;;;;;;7.93;7.47;;;27.70;99.90;;;;;;5012403;28;20924;-70
2022/06/24 10:11:09;;;;;;;7.70;7.10;;;27.80;99.90;;;;;;5012715;28;20756;-70
2022/06/24 10:14:02;;;;;;;8.50;7.83;;;27.90;99.90;;;;;;5011909;28;22292;-69
2022/06/24 10:16:54;;;;;;;8.37;7.67;;;28.00;99.90;;;;;;5015483;28;20890;-70
2022/06/24 10:19:45;;;;;;;7.80;7.30;;;28.10;99.90;;;;;;5018002;28;20493;-69
2022/06/24 10:22:44;;;;;;;7.83;7.33;;;28.20;99.90;;;;;;5016522;28;20960;-70
2022/06/24 10:25:53;;;;;;;7.90;7.30;;;28.30;99.90;;;;;;5015471;28;20855;-69
2022/06/24 10:29:17;;;;;;;8.80;8.13;;;28.40;99.90;;;;;;5015489;28;20455;-70
2022/06/24 10:32:10;;;;;;;7.80;7.20;;;28.40;99.90;;;;;;5013855;28;20883;-71
2022/06/24 10:35:00;;;;;;;7.50;7.00;;;28.50;99.90;;;;;;5009155;28;20480;-70
2022/06/24 10:37:56;;;;;;;8.20;7.70;;;28.60;99.90;;;;;;5005602;28;20523;-70
2022/06/24 10:40:46;;;;;;;7.47;6.90;;;28.70;99.90;;;;;;5005728;28;20459;-70
2022/06/24 10:43:39;;;;;;;8.13;7.63;;;28.70;99.90;;;;;;5010560;28;20850;-68
2022/06/24 10:46:27;;;;;;;8.60;7.97;;;28.80;99.90;;;;;;5003715;28;20456;-68
2022/06/24 10:49:17;;;;;;;7.27;6.67;;;28.90;99.90;;;;;;5006794;28;20513;-68
2022/06/24 10:52:32;;;;;;;8.17;7.47;;;28.90;99.90;;;;;;5004606;28;20940;-69
2022/06/24 10:55:42;;;;;;;8.40;7.80;;;29.10;99.90;;;;;;5006406;28;20486;-70
2022/06/24 10:58:31;;;;;;;7.90;7.30;;;29.10;99.90;;;;;;5006997;28;20570;-69
2022/06/24 11:01:19;;;;;;;7.73;7.10;;;29.20;99.90;;;;;;5006425;28;20448;-69
2022/06/24 11:04:10;;;;;;;8.47;7.70;;;29.10;99.90;;;;;;5010980;28;20483;-69
2022/06/24 11:07:15;;;;;;;8.53;7.60;;;29.10;99.90;;;;;;5015158;28;20467;-69
2022/06/24 11:10:16;;;;;;;8.17;7.60;;;29.10;99.90;;;;;;5009525;28;20518;-69
2022/06/24 11:13:04;;;;;;;7.83;7.33;;;29.10;99.90;;;;;;5006452;28;20633;-69
2022/06/24 11:15:56;;;;;;;8.67;8.10;;;29.20;99.90;;;;;;5009296;28;20967;-68
2022/06/24 11:18:44;;;;;;;8.23;7.63;;;29.30;99.90;;;;;;5005460;28;22548;-68
2022/06/24 11:21:46;;;;;;;8.00;7.30;;;29.40;99.90;;;;;;5011679;28;20455;-68
2022/06/24 11:24:37;;;;;;;8.30;7.80;;;29.40;99.90;;;;;;5012396;28;20577;-68
2022/06/24 11:27:36;;;;;;;8.37;7.77;;;29.50;99.90;;;;;;5005013;28;20467;-70
2022/06/24 11:30:26;;;;;;;8.30;7.70;;;29.60;99.90;;;;;;5003809;28;20508;-69
2022/06/24 11:33:14;;;;;;;8.97;7.90;;;29.80;99.90;;;;;;5012325;28;20472;-69
2022/06/24 11:36:03;;;;;;;7.63;7.00;;;29.90;99.90;;;;;;5014371;28;21820;-68
2022/06/24 11:38:55;;;;;;;8.10;7.60;;;30.00;99.90;;;;;;5010502;28;20920;-68
2022/06/24 11:41:48;;;;;;;8.40;7.90;;;30.10;99.90;;;;;;5010054;28;20597;-68
2022/06/24 11:44:42;;;;;;;8.53;7.93;;;30.20;99.90;;;;;;5006721;28;20475;-70
2022/06/24 11:47:31;;;;;;;7.87;7.47;;;30.30;99.90;;;;;;5014921;28;20450;-72
2022/06/24 11:50:20;;;;;;;8.17;7.77;;;30.30;99.90;;;;;;5018146;28;20543;-72
2022/06/24 11:53:09;;;;;;;8.10;7.67;;;30.50;99.90;;;;;;5008089;28;20460;-73
2022/06/24 11:56:05;;;;;;;8.17;7.67;;;30.50;99.90;;;;;;5015888;28;20499;-72
2022/06/24 11:58:55;;;;;;;7.83;7.30;;;30.60;99.90;;;;;;5012396;28;20548;-72
2022/06/24 12:01:44;;;;;;;7.57;7.00;;;30.70;99.90;;;;;;5022290;28;20516;-72
2022/06/24 12:04:35;;;;;;;7.87;7.37;;;30.80;99.90;;;;;;5019647;28;20494;-70
2022/06/24 12:07:26;;;;;;;7.73;7.20;;;30.80;99.90;;;;;;5016803;28;20781;-71
2022/06/24 12:10:15;;;;;;;8.13;7.60;;;30.70;99.90;;;;;;5019115;28;21882;-71
2022/06/24 12:13:06;;;;;;;8.23;7.43;;;30.60;99.90;;;;;;5019621;28;21029;-73
2022/06/24 12:15:56;;;;;;;7.83;7.23;;;30.50;99.90;;;;;;5018301;28;21023;-70
2022/06/24 12:18:44;;;;;;;8.40;7.73;;;30.30;99.90;;;;;;5017435;28;20528;-73
2022/06/24 12:21:33;;;;;;;8.10;7.50;;;30.20;99.90;;;;;;5011513;28;20594;-72
2022/06/24 12:24:22;;;;;;;8.57;7.87;;;30.00;99.90;;;;;;5013747;28;20549;-70
2022/06/24 12:27:12;;;;;;;8.10;7.57;;;29.90;99.90;;;;;;5009774;28;20451;-70
2022/06/24 12:30:00;;;;;;;8.77;7.73;;;29.70;99.90;;;;;;5014160;28;20549;-70
2022/06/24 12:32:51;;;;;;;8.10;7.50;;;29.50;99.90;;;;;;5017780;28;21725;-70
2022/06/24 12:35:41;;;;;;;11.57;7.40;;;29.20;99.90;;;;;;5010932;28;20598;-71
2022/06/24 12:38:43;;;;;;;7.73;7.13;;;29.00;99.90;;;;;;5014742;28;20521;-70
2022/06/24 12:41:44;;;;;;;7.33;6.63;;;28.70;99.90;;;;;;5018668;28;20998;-69
2022/06/24 12:44:41;;;;;;;8.80;7.30;;;28.40;99.90;;;;;;5008226;28;20479;-70
2022/06/24 12:50:36;;;;;;;7.30;6.60;;;27.70;99.90;;;;;;4987573;28;20562;-69
2022/06/24 12:53:24;;;;;;;7.77;7.10;;;27.40;99.90;;;;;;5006086;28;20542;-69
2022/06/24 12:56:13;;;;;;;7.90;7.23;;;27.20;99.90;;;;;;5016501;28;20471;-70
2022/06/24 12:59:01;;;;;;;7.27;6.63;;;26.90;99.90;;;;;;5011701;28;20488;-74
2022/06/24 13:01:49;;;;;;;7.10;6.30;;;26.70;99.90;;;;;;5008360;28;20546;-74
2022/06/24 13:04:38;;;;;;;6.93;6.33;;;26.60;99.90;;;;;;5011478;28;20522;-72
2022/06/24 13:07:28;;;;;;;6.63;6.03;;;26.50;99.90;;;;;;5007727;28;20455;-73
2022/06/24 13:10:18;;;;;;;7.90;7.27;;;26.30;99.90;;;;;;5010390;28;20483;-75
2022/06/24 13:13:07;;;;;;;6.57;6.00;;;26.30;99.90;;;;;;5014972;28;21218;-73
2022/06/24 13:15:55;;;;;;;7.73;7.13;;;26.20;99.90;;;;;;5005127;28;20522;-74
2022/06/24 13:18:43;;;;;;;7.50;6.80;;;26.10;99.90;;;;;;5015929;28;20597;-72
2022/06/24 13:21:32;;;;;;;7.10;6.40;;;26.00;99.90;;;;;;5015936;28;20462;-71
2022/06/24 13:24:22;;;;;;;8.17;7.37;;;26.00;99.90;;;;;;5016188;28;20511;-72
2022/06/24 13:27:12;;;;;;;7.27;6.57;;;26.00;99.90;;;;;;5017267;28;20456;-72
2022/06/24 13:30:00;;;;;;;12.70;7.27;;;25.90;99.90;;;;;;5020474;28;20816;-72
2022/06/24 13:32:51;;;;;;;7.20;6.60;;;25.90;99.90;;;;;;5010985;28;20479;-70
2022/06/24 13:35:40;;;;;;;7.67;6.87;;;25.90;99.90;;;;;;5019333;28;20513;-69
2022/06/24 13:38:28;;;;;;;10.43;7.20;;;25.90;99.90;;;;;;5011395;28;20502;-70
2022/06/24 13:41:18;;;;;;;7.33;6.70;;;25.90;99.90;;;;;;5016267;28;20840;-70
2022/06/24 13:44:08;;;;;;;7.90;6.00;;;26.00;99.90;;;;;;5013600;28;21173;-70
2022/06/24 13:46:56;;;;;;;7.53;6.87;;;26.00;99.90;;;;;;5014998;28;20574;-71
2022/06/24 13:49:44;;;;;;;8.40;7.60;;;26.00;99.90;;;;;;5017236;28;20969;-69
2022/06/24 13:52:32;;;;;;;7.93;7.23;;;25.90;99.90;;;;;;5007968;28;20451;-71
2022/06/24 13:55:23;;;;;;;8.37;6.80;;;26.00;99.90;;;;;;5013974;28;20480;-71
2022/06/24 13:58:12;;;;;;;7.23;6.70;;;26.00;99.90;;;;;;5013916;28;20540;-72
2022/06/24 14:01:01;;;;;;;7.90;7.17;;;26.00;99.90;;;;;;5009679;28;20794;-72
2022/06/24 14:03:49;;;;;;;7.50;6.90;;;26.00;99.90;;;;;;5020106;28;20481;-71
2022/06/24 14:06:38;;;;;;;7.37;6.77;;;26.10;99.90;;;;;;5017699;28;20455;-69
2022/06/24 14:09:26;;;;;;;8.00;7.30;;;26.10;99.90;;;;;;5012578;28;20572;-70
2022/06/24 14:12:17;;;;;;;7.13;6.57;;;26.20;99.90;;;;;;5003928;28;20461;-70
2022/06/24 14:15:10;;;;;;;7.73;7.07;;;26.30;99.90;;;;;;5008032;28;20483;-71
2022/06/24 14:17:59;;;;;;;7.60;6.90;;;26.50;99.90;;;;;;5003453;28;20507;-70
2022/06/24 14:20:47;;;;;;;7.93;7.00;;;26.60;99.90;;;;;;4991940;28;20507;-70
2022/06/24 14:26:41;;;;;;;6.97;6.03;;;26.60;99.90;;;;;;5020500;28;20669;-70
2022/06/24 14:29:29;;;;;;;6.97;6.37;;;26.60;99.90;;;;;;5006135;28;20533;-70
2022/06/24 14:32:19;;;;;;;6.93;6.13;;;26.60;99.90;;;;;;5017379;28;20498;-69
2022/06/24 14:35:11;;;;;;;6.33;5.83;;;26.60;99.90;;;;;;5017452;28;20556;-69
2022/06/24 14:41:05;;;;;;;5.67;5.17;;;26.60;99.90;;;;;;5015724;28;20483;-69
2022/06/24 14:43:58;;;;;;;5.07;4.67;;;26.60;99.90;;;;;;5019125;28;20490;-69
2022/06/24 14:46:52;;;;;;;5.10;4.60;;;26.60;99.90;;;;;;5015767;28;20498;-70
2022/06/24 14:49:43;;;;;;;5.33;4.80;;;26.50;99.90;;;;;;5020109;28;20456;-70
2022/06/24 14:52:32;;;;;;;4.73;4.23;;;26.50;99.90;;;;;;5023050;28;20460;-70
2022/06/24 14:55:20;;;;;;;4.50;4.10;;;26.40;99.90;;;;;;5015266;28;20649;-70
2022/06/24 14:58:10;;;;;;;4.40;4.10;;;26.40;99.90;;;;;;5019803;28;20463;-70
2022/06/24 15:01:01;;;;;;;5.30;4.80;;;26.30;99.90;;;;;;5021582;28;20632;-70
2022/06/24 15:03:49;;;;;;;3.93;3.63;;;26.20;99.90;;;;;;5017005;28;20459;-69
2022/06/24 15:06:39;;;;;;;4.93;4.53;;;26.20;99.90;;;;;;5024654;28;20555;-69
2022/06/24 15:09:29;;;;;;;5.00;4.50;;;26.10;99.90;;;;;;5012672;28;20935;-71
2022/06/24 15:12:20;;;;;;;4.60;4.17;;;26.00;99.90;;;;;;5014853;28;20477;-70
2022/06/24 15:15:09;;;;;;;7.33;5.10;;;25.90;99.90;;;;;;5011730;28;20500;-69
2022/06/24 15:17:57;;;;;;;4.50;4.10;;;25.90;99.90;;;;;;5019425;28;20966;-70